sensor_id;sensor_type;location;lat;lon;timestamp;pressure;altitude;pressure_sealevel;temperature;humidity
48652;BME280;34442;52.362;-1.302;2023-02-22T00:00:09;99862.97;;;7.99;100.00
48652;BME280;34442;52.362;-1.302;2023-02-22T00:02:50;99849.16;;;8.02;100.00
48652;BME280;34442;52.362;-1.302;2023-02-22T00:05:17;99852.47;;;8.04;100.00
48652;BME280;34442;52.362;-1.302;2023-02-22T00:07:49;99847.28;;;8.02;100.00
48652;BME280;34442;52.362;-1.302;2023-02-22T00:10:15;99836.19;;;7.99;100.00
48652;BME280;34442;52.362;-1.302;2023-02-22T00:12:47;99820.75;;;8.01;100.00
48652;BME280;34442;52.362;-1.302;2023-02-22T00:15:20;99816.59;;;7.98;100.00
48652;BME280;34442;52.362;-1.302;2023-02-22T00:17:46;99822.59;;;8.00;100.00
48652;BME280;34442;52.362;-1.302;2023-02-22T00:20:13;99822.81;;;7.99;100.00
48652;BME280;34442;52.362;-1.302;2023-02-22T00:22:40;99812.72;;;8.01;100.00
48652;BME280;34442;52.362;-1.302;2023-02-22T00:25:06;99806.53;;;8.00;100.00
48652;BME280;34442;52.362;-1.302;2023-02-22T00:27:31;99809.00;;;7.95;100.00
48652;BME280;34442;52.362;-1.302;2023-02-22T00:29:57;99800.97;;;7.95;100.00
48652;BME280;34442;52.362;-1.302;2023-02-22T00:32:22;99790.03;;;7.90;100.00
48652;BME280;34442;52.362;-1.302;2023-02-22T00:34:51;99797.66;;;7.93;100.00
48652;BME280;34442;52.362;-1.302;2023-02-22T00:37:16;99797.88;;;7.91;100.00
48652;BME280;34442;52.362;-1.302;2023-02-22T00:39:45;99791.50;;;7.92;100.00
48652;BME280;34442;52.362;-1.302;2023-02-22T00:42:11;99790.47;;;7.93;100.00
48652;BME280;34442;52.362;-1.302;2023-02-22T00:44:36;99797.06;;;7.91;100.00
48652;BME280;34442;52.362;-1.302;2023-02-22T00:47:02;99801.59;;;7.90;100.00
48652;BME280;34442;52.362;-1.302;2023-02-22T00:49:29;99789.22;;;7.89;100.00
48652;BME280;34442;52.362;-1.302;2023-02-22T00:51:54;99792.53;;;7.91;100.00
48652;BME280;34442;52.362;-1.302;2023-02-22T00:54:19;99788.41;;;7.95;100.00
48652;BME280;34442;52.362;-1.302;2023-02-22T00:56:45;99789.66;;;8.00;100.00
48652;BME280;34442;52.362;-1.302;2023-02-22T00:59:11;99784.91;;;8.35;100.00
48652;BME280;34442;52.362;-1.302;2023-02-22T01:01:39;99777.50;;;7.97;100.00
48652;BME280;34442;52.362;-1.302;2023-02-22T01:04:05;99783.88;;;7.89;100.00
48652;BME280;34442;52.362;-1.302;2023-02-22T01:06:30;99784.69;;;7.83;100.00
48652;BME280;34442;52.362;-1.302;2023-02-22T01:08:56;99784.88;;;7.75;100.00
48652;BME280;34442;52.362;-1.302;2023-02-22T01:11:21;99781.56;;;7.73;100.00
48652;BME280;34442;52.362;-1.302;2023-02-22T01:13:47;99785.09;;;7.74;100.00
48652;BME280;34442;52.362;-1.302;2023-02-22T01:16:12;99782.22;;;7.75;100.00
48652;BME280;34442;52.362;-1.302;2023-02-22T01:18:38;99781.56;;;7.73;100.00
48652;BME280;34442;52.362;-1.302;2023-02-22T01:21:04;99791.88;;;7.69;100.00
48652;BME280;34442;52.362;-1.302;2023-02-22T01:23:29;99791.66;;;7.71;100.00
48652;BME280;34442;52.362;-1.302;2023-02-22T01:25:55;99798.66;;;7.72;100.00
48652;BME280;34442;52.362;-1.302;2023-02-22T01:28:21;99792.88;;;7.68;100.00
48652;BME280;34442;52.362;-1.302;2023-02-22T01:30:47;99787.34;;;7.70;100.00
48652;BME280;34442;52.362;-1.302;2023-02-22T01:33:13;99790.63;;;7.72;100.00
48652;BME280;34442;52.362;-1.302;2023-02-22T01:35:41;99782.78;;;7.64;100.00
48652;BME280;34442;52.362;-1.302;2023-02-22T01:38:07;99784.47;;;7.71;100.00
48652;BME280;34442;52.362;-1.302;2023-02-22T01:40:36;99778.91;;;7.73;100.00
48652;BME280;34442;52.362;-1.302;2023-02-22T01:43:13;99776.84;;;7.75;100.00
48652;BME280;34442;52.362;-1.302;2023-02-22T01:45:54;99780.75;;;7.72;100.00
48652;BME280;34442;52.362;-1.302;2023-02-22T01:48:26;99776.47;;;7.78;100.00
48652;BME280;34442;52.362;-1.302;2023-02-22T01:51:02;99776.25;;;7.80;100.00
48652;BME280;34442;52.362;-1.302;2023-02-22T01:53:40;99770.47;;;7.76;100.00
48652;BME280;34442;52.362;-1.302;2023-02-22T01:56:07;99771.09;;;7.71;100.00
48652;BME280;34442;52.362;-1.302;2023-02-22T01:58:35;99777.47;;;7.70;100.00
48652;BME280;34442;52.362;-1.302;2023-02-22T02:01:04;99767.19;;;7.74;100.00
48652;BME280;34442;52.362;-1.302;2023-02-22T02:03:32;99766.56;;;7.72;100.00
48652;BME280;34442;52.362;-1.302;2023-02-22T02:06:00;99768.84;;;7.75;100.00
48652;BME280;34442;52.362;-1.302;2023-02-22T02:08:40;99764.09;;;7.70;100.00
48652;BME280;34442;52.362;-1.302;2023-02-22T02:11:07;99758.09;;;7.68;100.00
48652;BME280;34442;52.362;-1.302;2023-02-22T02:13:33;99766.75;;;7.64;100.00
48652;BME280;34442;52.362;-1.302;2023-02-22T02:15:58;99760.16;;;7.60;100.00
48652;BME280;34442;52.362;-1.302;2023-02-22T02:18:27;99763.84;;;7.59;100.00
48652;BME280;34442;52.362;-1.302;2023-02-22T02:21:25;99753.97;;;7.59;100.00
48652;BME280;34442;52.362;-1.302;2023-02-22T02:32:20;99747.16;;;7.43;100.00
48652;BME280;34442;52.362;-1.302;2023-02-22T02:35:05;99742.00;;;7.42;100.00
48652;BME280;34442;52.362;-1.302;2023-02-22T02:37:46;99738.91;;;7.38;100.00
48652;BME280;34442;52.362;-1.302;2023-02-22T02:43:17;99743.66;;;7.43;100.00
48652;BME280;34442;52.362;-1.302;2023-02-22T02:45:53;99734.81;;;7.42;100.00
48652;BME280;34442;52.362;-1.302;2023-02-22T02:48:26;99737.28;;;7.37;100.00
48652;BME280;34442;52.362;-1.302;2023-02-22T02:50:55;99740.56;;;7.39;100.00
48652;BME280;34442;52.362;-1.302;2023-02-22T02:53:27;99733.63;;;8.58;100.00
48652;BME280;34442;52.362;-1.302;2023-02-22T02:55:58;99730.47;;;8.81;100.00
48652;BME280;34442;52.362;-1.302;2023-02-22T02:58:23;99736.44;;;8.89;100.00
48652;BME280;34442;52.362;-1.302;2023-02-22T03:00:52;99735.63;;;8.89;100.00
48652;BME280;34442;52.362;-1.302;2023-02-22T03:03:49;99737.03;;;8.91;100.00
48652;BME280;34442;52.362;-1.302;2023-02-22T03:06:28;99730.69;;;8.79;100.00
48652;BME280;34442;52.362;-1.302;2023-02-22T03:14:41;99727.34;;;8.84;100.00
48652;BME280;34442;52.362;-1.302;2023-02-22T03:17:20;99729.25;;;8.77;100.00
48652;BME280;34442;52.362;-1.302;2023-02-22T03:19:52;99723.91;;;8.70;100.00
48652;BME280;34442;52.362;-1.302;2023-02-22T03:25:02;99729.50;;;8.68;100.00
48652;BME280;34442;52.362;-1.302;2023-02-22T03:27:51;99731.72;;;8.72;100.00
48652;BME280;34442;52.362;-1.302;2023-02-22T03:30:23;99732.16;;;8.68;100.00
48652;BME280;34442;52.362;-1.302;2023-02-22T03:32:55;99724.91;;;8.76;100.00
48652;BME280;34442;52.362;-1.302;2023-02-22T03:35:25;99721.00;;;8.72;100.00
48652;BME280;34442;52.362;-1.302;2023-02-22T03:37:56;99718.31;;;8.72;100.00
48652;BME280;34442;52.362;-1.302;2023-02-22T03:40:34;99715.47;;;8.73;100.00
48652;BME280;34442;52.362;-1.302;2023-02-22T03:43:09;99710.31;;;8.65;100.00
48652;BME280;34442;52.362;-1.302;2023-02-22T03:45:39;99712.78;;;8.60;100.00
48652;BME280;34442;52.362;-1.302;2023-02-22T03:51:12;99710.34;;;8.52;100.00
48652;BME280;34442;52.362;-1.302;2023-02-22T03:53:40;99704.78;;;8.53;100.00
48652;BME280;34442;52.362;-1.302;2023-02-22T03:56:07;99699.03;;;8.50;100.00
48652;BME280;34442;52.362;-1.302;2023-02-22T03:58:36;99701.69;;;8.50;100.00
48652;BME280;34442;52.362;-1.302;2023-02-22T04:01:02;99697.38;;;8.49;100.00
48652;BME280;34442;52.362;-1.302;2023-02-22T04:03:27;99695.75;;;8.48;100.00
48652;BME280;34442;52.362;-1.302;2023-02-22T04:05:53;99696.16;;;8.44;100.00
48652;BME280;34442;52.362;-1.302;2023-02-22T04:08:18;99696.75;;;8.47;100.00
48652;BME280;34442;52.362;-1.302;2023-02-22T04:10:44;99695.34;;;8.44;100.00
48652;BME280;34442;52.362;-1.302;2023-02-22T04:13:09;99695.75;;;8.48;100.00
48652;BME280;34442;52.362;-1.302;2023-02-22T04:15:34;99694.06;;;8.53;100.00
48652;BME280;34442;52.362;-1.302;2023-02-22T04:18:00;99686.66;;;8.49;100.00
48652;BME280;34442;52.362;-1.302;2023-02-22T04:20:26;99682.34;;;8.41;100.00
48652;BME280;34442;52.362;-1.302;2023-02-22T04:22:52;99673.09;;;8.37;100.00
48652;BME280;34442;52.362;-1.302;2023-02-22T04:25:18;99674.94;;;8.36;100.00
48652;BME280;34442;52.362;-1.302;2023-02-22T04:27:43;99670.81;;;8.40;100.00
48652;BME280;34442;52.362;-1.302;2023-02-22T04:30:10;99671.25;;;8.37;100.00
48652;BME280;34442;52.362;-1.302;2023-02-22T04:32:36;99662.78;;;8.40;100.00
48652;BME280;34442;52.362;-1.302;2023-02-22T04:35:02;99657.63;;;8.39;100.00
48652;BME280;34442;52.362;-1.302;2023-02-22T04:37:28;99665.06;;;8.43;100.00
48652;BME280;34442;52.362;-1.302;2023-02-22T04:39:53;99659.03;;;8.35;100.00
48652;BME280;34442;52.362;-1.302;2023-02-22T04:42:18;99647.53;;;8.41;100.00
48652;BME280;34442;52.362;-1.302;2023-02-22T04:44:44;99651.44;;;8.38;100.00
48652;BME280;34442;52.362;-1.302;2023-02-22T04:47:09;99652.50;;;8.37;100.00
48652;BME280;34442;52.362;-1.302;2023-02-22T04:49:34;99636.44;;;8.37;100.00
48652;BME280;34442;52.362;-1.302;2023-02-22T04:52:00;99646.09;;;8.38;100.00
48652;BME280;34442;52.362;-1.302;2023-02-22T04:54:25;99641.34;;;8.34;100.00
48652;BME280;34442;52.362;-1.302;2023-02-22T04:56:51;99644.47;;;8.37;100.00
48652;BME280;34442;52.362;-1.302;2023-02-22T04:59:16;99641.16;;;8.35;100.00
48652;BME280;34442;52.362;-1.302;2023-02-22T05:01:44;99642.38;;;8.33;100.00
48652;BME280;34442;52.362;-1.302;2023-02-22T05:04:10;99641.16;;;8.29;100.00
48652;BME280;34442;52.362;-1.302;2023-02-22T05:06:35;99642.19;;;8.28;100.00
48652;BME280;34442;52.362;-1.302;2023-02-22T05:09:00;99644.66;;;8.29;100.00
48652;BME280;34442;52.362;-1.302;2023-02-22T05:11:26;99649.59;;;8.32;100.00
48652;BME280;34442;52.362;-1.302;2023-02-22T05:13:52;99651.66;;;8.30;100.00
48652;BME280;34442;52.362;-1.302;2023-02-22T05:16:17;99654.31;;;8.30;100.00
48652;BME280;34442;52.362;-1.302;2023-02-22T05:18:43;99645.06;;;8.33;100.00
48652;BME280;34442;52.362;-1.302;2023-02-22T05:21:09;99649.59;;;8.32;100.00
48652;BME280;34442;52.362;-1.302;2023-02-22T05:23:34;99640.94;;;8.30;100.00
48652;BME280;34442;52.362;-1.302;2023-02-22T05:25:59;99639.53;;;8.28;100.00
48652;BME280;34442;52.362;-1.302;2023-02-22T05:28:25;99634.97;;;8.28;100.00
48652;BME280;34442;52.362;-1.302;2023-02-22T05:30:51;99637.44;;;8.30;100.00
48652;BME280;34442;52.362;-1.302;2023-02-22T05:33:16;99631.69;;;8.26;100.00
48652;BME280;34442;52.362;-1.302;2023-02-22T05:35:42;99631.25;;;8.29;100.00
48652;BME280;34442;52.362;-1.302;2023-02-22T05:38:10;99624.28;;;8.28;100.00
48652;BME280;34442;52.362;-1.302;2023-02-22T05:40:39;99629.00;;;8.26;100.00
48652;BME280;34442;52.362;-1.302;2023-02-22T05:43:06;99633.53;;;8.26;100.00
48652;BME280;34442;52.362;-1.302;2023-02-22T05:45:32;99634.97;;;8.21;100.00
48652;BME280;34442;52.362;-1.302;2023-02-22T05:47:58;99635.81;;;8.22;100.00
48652;BME280;34442;52.362;-1.302;2023-02-22T05:50:24;99639.94;;;8.25;100.00
48652;BME280;34442;52.362;-1.302;2023-02-22T05:52:49;99629.63;;;8.21;100.00
48652;BME280;34442;52.362;-1.302;2023-02-22T05:55:18;99626.75;;;8.23;100.00
48652;BME280;34442;52.362;-1.302;2023-02-22T05:57:44;99633.72;;;8.31;100.00
48652;BME280;34442;52.362;-1.302;2023-02-22T06:00:16;99630.84;;;8.32;100.00
48652;BME280;34442;52.362;-1.302;2023-02-22T06:02:41;99631.44;;;8.34;100.00
48652;BME280;34442;52.362;-1.302;2023-02-22T06:05:07;99625.31;;;8.27;100.00
48652;BME280;34442;52.362;-1.302;2023-02-22T06:07:32;99639.06;;;8.31;100.00
48652;BME280;34442;52.362;-1.302;2023-02-22T06:09:57;99628.38;;;8.37;100.00
48652;BME280;34442;52.362;-1.302;2023-02-22T06:12:23;99626.91;;;8.35;100.00
48652;BME280;34442;52.362;-1.302;2023-02-22T06:14:48;99624.91;;;8.37;100.00
48652;BME280;34442;52.362;-1.302;2023-02-22T06:17:15;99616.03;;;8.30;100.00
48652;BME280;34442;52.362;-1.302;2023-02-22T06:19:40;99620.34;;;8.31;100.00
48652;BME280;34442;52.362;-1.302;2023-02-22T06:22:06;99614.59;;;8.27;100.00
48652;BME280;34442;52.362;-1.302;2023-02-22T06:24:32;99618.50;;;8.18;100.00
48652;BME280;34442;52.362;-1.302;2023-02-22T06:27:00;99609.88;;;8.16;100.00
48652;BME280;34442;52.362;-1.302;2023-02-22T06:29:27;99612.56;;;8.16;100.00
48652;BME280;34442;52.362;-1.302;2023-02-22T06:31:53;99620.59;;;8.16;100.00
48652;BME280;34442;52.362;-1.302;2023-02-22T06:34:21;99615.84;;;8.18;100.00
48652;BME280;34442;52.362;-1.302;2023-02-22T06:36:48;99610.47;;;8.18;100.00
48652;BME280;34442;52.362;-1.302;2023-02-22T06:39:16;99611.09;;;8.20;100.00
48652;BME280;34442;52.362;-1.302;2023-02-22T06:41:44;99617.09;;;8.15;100.00
48652;BME280;34442;52.362;-1.302;2023-02-22T06:44:11;99614.66;;;8.07;100.00
48652;BME280;34442;52.362;-1.302;2023-02-22T06:46:37;99614.63;;;8.14;100.00
48652;BME280;34442;52.362;-1.302;2023-02-22T06:49:03;99613.78;;;8.20;100.00
48652;BME280;34442;52.362;-1.302;2023-02-22T06:51:30;99616.25;;;8.28;100.00
48652;BME280;34442;52.362;-1.302;2023-02-22T06:53:59;99618.91;;;8.28;100.00
48652;BME280;34442;52.362;-1.302;2023-02-22T06:56:25;99616.25;;;8.28;100.00
48652;BME280;34442;52.362;-1.302;2023-02-22T06:58:51;99616.25;;;8.28;100.00
48652;BME280;34442;52.362;-1.302;2023-02-22T07:01:16;99618.50;;;8.25;100.00
48652;BME280;34442;52.362;-1.302;2023-02-22T07:03:41;99617.88;;;8.23;100.00
48652;BME280;34442;52.362;-1.302;2023-02-22T07:06:07;99619.56;;;8.24;100.00
48652;BME280;34442;52.362;-1.302;2023-02-22T07:08:35;99619.16;;;8.20;100.00
48652;BME280;34442;52.362;-1.302;2023-02-22T07:11:01;99619.16;;;8.20;100.00
48652;BME280;34442;52.362;-1.302;2023-02-22T07:13:26;99623.66;;;8.26;100.00
48652;BME280;34442;52.362;-1.302;2023-02-22T07:15:52;99612.34;;;8.24;100.00
48652;BME280;34442;52.362;-1.302;2023-02-22T07:18:18;99619.56;;;8.24;100.00
48652;BME280;34442;52.362;-1.302;2023-02-22T07:20:44;99618.72;;;8.23;100.00
48652;BME280;34442;52.362;-1.302;2023-02-22T07:23:13;99624.47;;;8.27;100.00
48652;BME280;34442;52.362;-1.302;2023-02-22T07:25:39;99623.84;;;8.31;100.00
48652;BME280;34442;52.362;-1.302;2023-02-22T07:28:04;99622.63;;;8.40;100.00
48652;BME280;34442;52.362;-1.302;2023-02-22T07:30:31;99623.22;;;8.42;100.00
48652;BME280;34442;52.362;-1.302;2023-02-22T07:33:03;99627.75;;;8.42;100.00
48652;BME280;34442;52.362;-1.302;2023-02-22T07:35:48;99614.53;;;8.47;100.00
48652;BME280;34442;52.362;-1.302;2023-02-22T07:38:16;99611.50;;;8.43;100.00
48652;BME280;34442;52.362;-1.302;2023-02-22T07:40:42;99622.38;;;8.49;100.00
48652;BME280;34442;52.362;-1.302;2023-02-22T07:43:18;99629.38;;;8.56;100.00
48652;BME280;34442;52.362;-1.302;2023-02-22T07:45:45;99639.06;;;8.51;100.00
48652;BME280;34442;52.362;-1.302;2023-02-22T07:48:11;99645.44;;;8.56;100.00
48652;BME280;34442;52.362;-1.302;2023-02-22T07:50:38;99638.00;;;8.52;100.00
48652;BME280;34442;52.362;-1.302;2023-02-22T07:53:06;99643.41;;;8.45;100.00
48652;BME280;34442;52.362;-1.302;2023-02-22T07:55:33;99646.09;;;8.45;100.00
48652;BME280;34442;52.362;-1.302;2023-02-22T07:58:01;99641.94;;;8.49;100.00
48652;BME280;34442;52.362;-1.302;2023-02-22T08:00:32;99645.28;;;8.44;100.00
48652;BME280;34442;52.362;-1.302;2023-02-22T08:02:59;99655.31;;;8.56;100.00
48652;BME280;34442;52.362;-1.302;2023-02-22T08:05:26;99654.47;;;8.62;100.00
48652;BME280;34442;52.362;-1.302;2023-02-22T08:07:52;99654.69;;;8.60;100.00
48652;BME280;34442;52.362;-1.302;2023-02-22T08:10:20;99657.38;;;8.60;100.00
48652;BME280;34442;52.362;-1.302;2023-02-22T08:12:47;99654.09;;;8.52;100.00
48652;BME280;34442;52.362;-1.302;2023-02-22T08:15:34;99656.16;;;8.56;100.00
48652;BME280;34442;52.362;-1.302;2023-02-22T08:18:02;99654.31;;;8.50;100.00
48652;BME280;34442;52.362;-1.302;2023-02-22T08:20:28;99654.69;;;8.60;100.00
48652;BME280;34442;52.362;-1.302;2023-02-22T08:22:55;99648.69;;;8.65;100.00
48652;BME280;34442;52.362;-1.302;2023-02-22T08:25:24;99642.13;;;8.61;100.00
48652;BME280;34442;52.362;-1.302;2023-02-22T08:27:50;99647.06;;;8.57;100.00
48652;BME280;34442;52.362;-1.302;2023-02-22T08:30:19;99643.34;;;8.58;100.00
48652;BME280;34442;52.362;-1.302;2023-02-22T08:32:45;99646.44;;;8.55;100.00
48652;BME280;34442;52.362;-1.302;2023-02-22T08:35:13;99652.22;;;8.59;100.00
48652;BME280;34442;52.362;-1.302;2023-02-22T08:37:56;99647.66;;;8.66;100.00
48652;BME280;34442;52.362;-1.302;2023-02-22T08:40:26;99652.38;;;8.70;100.00
48652;BME280;34442;52.362;-1.302;2023-02-22T08:42:52;99649.91;;;8.69;100.00
48652;BME280;34442;52.362;-1.302;2023-02-22T08:45:17;99650.09;;;8.74;100.00
48652;BME280;34442;52.362;-1.302;2023-02-22T08:47:44;99650.69;;;8.76;100.00
48652;BME280;34442;52.362;-1.302;2023-02-22T08:50:15;99651.97;;;8.74;100.00
48652;BME280;34442;52.362;-1.302;2023-02-22T08:52:41;99649.06;;;8.75;100.00
48652;BME280;34442;52.362;-1.302;2023-02-22T08:55:07;99649.47;;;8.72;100.00
48652;BME280;34442;52.362;-1.302;2023-02-22T08:57:32;99652.75;;;8.81;100.00
48652;BME280;34442;52.362;-1.302;2023-02-22T08:59:57;99652.75;;;8.81;100.00
48652;BME280;34442;52.362;-1.302;2023-02-22T09:02:23;99658.53;;;8.78;100.00
48652;BME280;34442;52.362;-1.302;2023-02-22T09:04:49;99661.81;;;8.80;100.00
48652;BME280;34442;52.362;-1.302;2023-02-22T09:07:15;99671.91;;;8.84;100.00
48652;BME280;34442;52.362;-1.302;2023-02-22T09:09:42;99659.94;;;8.80;100.00
48652;BME280;34442;52.362;-1.302;2023-02-22T09:12:07;99664.47;;;8.93;100.00
48652;BME280;34442;52.362;-1.302;2023-02-22T09:14:33;99659.91;;;8.93;100.00
48652;BME280;34442;52.362;-1.302;2023-02-22T09:16:59;99661.97;;;8.91;100.00
48652;BME280;34442;52.362;-1.302;2023-02-22T09:19:25;99663.44;;;8.87;100.00
48652;BME280;34442;52.362;-1.302;2023-02-22T09:21:57;99664.00;;;8.96;100.00
48652;BME280;34442;52.362;-1.302;2023-02-22T09:24:24;99657.13;;;9.13;100.00
48652;BME280;34442;52.362;-1.302;2023-02-22T09:26:49;99660.06;;;9.05;100.00
48652;BME280;34442;52.362;-1.302;2023-02-22T09:29:23;99656.09;;;9.14;100.00
48652;BME280;34442;52.362;-1.302;2023-02-22T09:31:50;99668.72;;;9.07;100.00
48652;BME280;34442;52.362;-1.302;2023-02-22T09:34:17;99665.44;;;9.05;100.00
48652;BME280;34442;52.362;-1.302;2023-02-22T09:36:45;99660.63;;;9.14;100.00
48652;BME280;34442;52.362;-1.302;2023-02-22T09:39:13;99664.22;;;9.01;100.00
48652;BME280;34442;52.362;-1.302;2023-02-22T09:44:19;99670.63;;;8.93;100.00
48652;BME280;34442;52.362;-1.302;2023-02-22T09:46:48;99674.16;;;8.87;100.00
48652;BME280;34442;52.362;-1.302;2023-02-22T09:49:23;99680.53;;;8.93;100.00
48652;BME280;34442;52.362;-1.302;2023-02-22T09:52:26;99680.06;;;9.03;100.00
48652;BME280;34442;52.362;-1.302;2023-02-22T09:55:05;99687.72;;;8.99;100.00
48652;BME280;34442;52.362;-1.302;2023-02-22T09:57:34;99677.25;;;8.91;100.00
48652;BME280;34442;52.362;-1.302;2023-02-22T10:00:03;99686.91;;;8.99;100.00
48652;BME280;34442;52.362;-1.302;2023-02-22T10:02:43;99685.03;;;8.99;100.00
48652;BME280;34442;52.362;-1.302;2023-02-22T10:05:25;99691.03;;;8.94;100.00
48652;BME280;34442;52.362;-1.302;2023-02-22T10:07:58;99682.09;;;9.07;100.00
48652;BME280;34442;52.362;-1.302;2023-02-22T10:10:29;99687.25;;;9.09;100.00
48652;BME280;34442;52.362;-1.302;2023-02-22T10:13:00;99679.84;;;9.04;100.00
48652;BME280;34442;52.362;-1.302;2023-02-22T10:15:36;99689.31;;;9.13;100.00
48652;BME280;34442;52.362;-1.302;2023-02-22T10:20:56;99688.78;;;9.30;100.00
48652;BME280;34442;52.362;-1.302;2023-02-22T10:23:48;99686.09;;;8.98;100.00
48652;BME280;34442;52.362;-1.302;2023-02-22T10:26:22;99693.00;;;9.19;100.00
48652;BME280;34442;52.362;-1.302;2023-02-22T10:28:57;99697.94;;;9.22;100.00
48652;BME280;34442;52.362;-1.302;2023-02-22T10:31:33;99693.66;;;8.50;100.00
48652;BME280;34442;52.362;-1.302;2023-02-22T10:34:30;99702.34;;;7.92;100.00
48652;BME280;34442;52.362;-1.302;2023-02-22T10:39:52;99698.25;;;7.83;100.00
48652;BME280;34442;52.362;-1.302;2023-02-22T10:42:24;99694.53;;;7.90;100.00
48652;BME280;34442;52.362;-1.302;2023-02-22T10:44:50;99698.03;;;8.04;100.00
48652;BME280;34442;52.362;-1.302;2023-02-22T10:47:16;99693.09;;;8.08;100.00
48652;BME280;34442;52.362;-1.302;2023-02-22T10:49:46;99697.59;;;7.94;100.00
48652;BME280;34442;52.362;-1.302;2023-02-22T10:52:34;99698.66;;;7.93;100.00
48652;BME280;34442;52.362;-1.302;2023-02-22T10:55:00;99712.22;;;7.85;100.00
48652;BME280;34442;52.362;-1.302;2023-02-22T10:57:34;99705.03;;;7.79;100.00
48652;BME280;34442;52.362;-1.302;2023-02-22T11:00:21;99706.47;;;7.75;100.00
48652;BME280;34442;52.362;-1.302;2023-02-22T11:03:16;99718.59;;;7.77;100.00
48652;BME280;34442;52.362;-1.302;2023-02-22T11:05:42;99716.16;;;7.89;100.00
48652;BME280;34442;52.362;-1.302;2023-02-22T11:10:52;99716.13;;;7.69;100.00
48652;BME280;34442;52.362;-1.302;2023-02-22T11:13:28;99717.34;;;7.60;100.00
48652;BME280;34442;52.362;-1.302;2023-02-22T11:15:57;99728.66;;;7.42;100.00
48652;BME280;34442;52.362;-1.302;2023-02-22T11:18:30;99734.75;;;7.22;100.00
48652;BME280;34442;52.362;-1.302;2023-02-22T11:21:07;99742.34;;;7.12;100.00
48652;BME280;34442;52.362;-1.302;2023-02-22T11:23:35;99736.75;;;7.07;100.00
48652;BME280;34442;52.362;-1.302;2023-02-22T11:26:12;99744.38;;;7.10;100.00
48652;BME280;34442;52.362;-1.302;2023-02-22T11:28:43;99745.22;;;7.24;100.00
48652;BME280;34442;52.362;-1.302;2023-02-22T11:31:21;99746.66;;;7.20;100.00
48652;BME280;34442;52.362;-1.302;2023-02-22T11:33:56;99746.69;;;7.27;100.00
48652;BME280;34442;52.362;-1.302;2023-02-22T11:36:38;99751.13;;;7.06;100.00
48652;BME280;34442;52.362;-1.302;2023-02-22T11:39:10;99755.06;;;7.04;100.00
48652;BME280;34442;52.362;-1.302;2023-02-22T11:41:45;99752.47;;;7.30;100.00
48652;BME280;34442;52.362;-1.302;2023-02-22T11:44:28;99754.53;;;7.35;100.00
48652;BME280;34442;52.362;-1.302;2023-02-22T11:46:56;99748.41;;;7.47;100.00
48652;BME280;34442;52.362;-1.302;2023-02-22T11:49:36;99744.91;;;7.47;100.00
48652;BME280;34442;52.362;-1.302;2023-02-22T11:57:54;99755.00;;;7.65;100.00
48652;BME280;34442;52.362;-1.302;2023-02-22T12:21:25;99762.88;;;8.26;100.00
48652;BME280;34442;52.362;-1.302;2023-02-22T12:24:14;99756.94;;;8.37;100.00
48652;BME280;34442;52.362;-1.302;2023-02-22T12:26:47;99754.66;;;8.28;100.00
48652;BME280;34442;52.362;-1.302;2023-02-22T12:32:07;99757.75;;;7.91;100.00
48652;BME280;34442;52.362;-1.302;2023-02-22T12:34:42;99759.34;;;7.72;100.00
48652;BME280;34442;52.362;-1.302;2023-02-22T12:37:20;99761.03;;;7.93;100.00
48652;BME280;34442;52.362;-1.302;2023-02-22T12:40:13;99761.84;;;8.14;100.00
48652;BME280;34442;52.362;-1.302;2023-02-22T12:42:58;99764.13;;;8.17;100.00
48652;BME280;34442;52.362;-1.302;2023-02-22T12:48:51;99767.41;;;7.92;100.00
48652;BME280;34442;52.362;-1.302;2023-02-22T12:51:24;99774.59;;;7.85;100.00
48652;BME280;34442;52.362;-1.302;2023-02-22T12:56:56;99778.47;;;7.63;100.00
48652;BME280;34442;52.362;-1.302;2023-02-22T12:59:38;99784.66;;;7.63;100.00
48652;BME280;34442;52.362;-1.302;2023-02-22T13:05:17;99781.19;;;7.69;100.00
48652;BME280;34442;52.362;-1.302;2023-02-22T13:13:16;99787.63;;;8.15;100.00
48652;BME280;34442;52.362;-1.302;2023-02-22T13:21:10;99782.06;;;8.50;100.00
48652;BME280;34442;52.362;-1.302;2023-02-22T13:28:49;99784.13;;;8.48;100.00
48652;BME280;34442;52.362;-1.302;2023-02-22T13:31:49;99775.25;;;8.47;100.00
48652;BME280;34442;52.362;-1.302;2023-02-22T13:34:37;99774.63;;;8.52;100.00
48652;BME280;34442;52.362;-1.302;2023-02-22T13:54:06;99779.78;;;8.73;100.00
48652;BME280;34442;52.362;-1.302;2023-02-22T13:56:32;99778.50;;;8.82;100.00
48652;BME280;34442;52.362;-1.302;2023-02-22T13:58:59;99776.03;;;8.81;100.00
48652;BME280;34442;52.362;-1.302;2023-02-22T14:01:44;99786.97;;;8.79;100.00
48652;BME280;34442;52.362;-1.302;2023-02-22T14:15:12;99787.41;;;8.43;100.00
48652;BME280;34442;52.362;-1.302;2023-02-22T14:17:45;99783.06;;;8.22;100.00
48652;BME280;34442;52.362;-1.302;2023-02-22T14:22:40;99788.84;;;8.26;100.00
48652;BME280;34442;52.362;-1.302;2023-02-22T14:27:58;99790.69;;;8.25;100.00
48652;BME280;34442;52.362;-1.302;2023-02-22T14:30:28;99789.25;;;8.23;100.00
48652;BME280;34442;52.362;-1.302;2023-02-22T14:32:54;99791.69;;;7.97;100.00
48652;BME280;34442;52.362;-1.302;2023-02-22T14:35:20;99788.63;;;8.01;100.00
48652;BME280;34442;52.362;-1.302;2023-02-22T14:37:54;99794.19;;;8.06;100.00
48652;BME280;34442;52.362;-1.302;2023-02-22T14:40:24;99792.13;;;8.14;100.00
48652;BME280;34442;52.362;-1.302;2023-02-22T14:43:13;99790.50;;;8.07;100.00
48652;BME280;34442;52.362;-1.302;2023-02-22T14:45:47;99790.28;;;8.28;100.00
48652;BME280;34442;52.362;-1.302;2023-02-22T14:48:31;99794.44;;;8.44;100.00
48652;BME280;34442;52.362;-1.302;2023-02-22T14:51:22;99793.19;;;8.47;100.00
48652;BME280;34442;52.362;-1.302;2023-02-22T14:53:57;99793.16;;;8.20;100.00
48652;BME280;34442;52.362;-1.302;2023-02-22T14:56:50;99792.31;;;8.06;100.00
48652;BME280;34442;52.362;-1.302;2023-02-22T14:59:21;99810.66;;;7.96;100.00
48652;BME280;34442;52.362;-1.302;2023-02-22T15:01:48;99801.97;;;7.94;100.00
48652;BME280;34442;52.362;-1.302;2023-02-22T15:04:23;99804.91;;;7.99;100.00
48652;BME280;34442;52.362;-1.302;2023-02-22T15:06:50;99804.06;;;7.99;100.00